sensor_id;sensor_type;location;lat;lon;timestamp;pressure;altitude;pressure_sealevel;temperature;humidity
46876;BME280;32866;50.160;14.768;2023-05-24T00:01:26;99522.97;;;11.78;100.00
46876;BME280;32866;50.160;14.768;2023-05-24T00:03:52;99514.88;;;11.61;100.00
46876;BME280;32866;50.160;14.768;2023-05-24T00:06:18;99519.47;;;11.64;100.00
46876;BME280;32866;50.160;14.768;2023-05-24T00:08:45;99525.94;;;11.58;100.00
46876;BME280;32866;50.160;14.768;2023-05-24T00:11:10;99553.84;;;11.69;100.00
46876;BME280;32866;50.160;14.768;2023-05-24T00:13:36;99547.16;;;11.70;100.00
46876;BME280;32866;50.160;14.768;2023-05-24T00:16:01;99541.72;;;11.79;100.00
46876;BME280;32866;50.160;14.768;2023-05-24T00:18:27;99503.69;;;11.43;100.00
46876;BME280;32866;50.160;14.768;2023-05-24T00:20:58;99548.47;;;11.65;100.00
46876;BME280;32866;50.160;14.768;2023-05-24T00:23:24;99549.13;;;11.57;100.00
46876;BME280;32866;50.160;14.768;2023-05-24T00:25:51;99548.81;;;11.55;100.00
46876;BME280;32866;50.160;14.768;2023-05-24T00:28:17;99542.78;;;11.60;100.00
46876;BME280;32866;50.160;14.768;2023-05-24T00:30:42;99504.28;;;11.25;100.00
46876;BME280;32866;50.160;14.768;2023-05-24T00:33:07;99544.63;;;11.50;100.00
46876;BME280;32866;50.160;14.768;2023-05-24T00:35:33;99523.78;;;11.27;100.00
46876;BME280;32866;50.160;14.768;2023-05-24T00:37:58;99532.66;;;11.31;100.00
46876;BME280;32866;50.160;14.768;2023-05-24T00:40:24;99548.25;;;11.47;100.00
46876;BME280;32866;50.160;14.768;2023-05-24T00:42:49;99518.53;;;11.20;100.00
46876;BME280;32866;50.160;14.768;2023-05-24T00:45:14;99505.16;;;11.22;100.00
46876;BME280;32866;50.160;14.768;2023-05-24T00:47:40;99525.34;;;11.28;100.00
46876;BME280;32866;50.160;14.768;2023-05-24T00:50:06;99552.09;;;11.49;100.00
46876;BME280;32866;50.160;14.768;2023-05-24T00:52:32;99546.28;;;11.47;100.00
46876;BME280;32866;50.160;14.768;2023-05-24T00:54:58;99541.00;;;11.27;100.00
46876;BME280;32866;50.160;14.768;2023-05-24T00:57:23;99548.56;;;11.36;100.00
46876;BME280;32866;50.160;14.768;2023-05-24T00:59:49;99528.28;;;11.21;100.00
46876;BME280;32866;50.160;14.768;2023-05-24T01:02:15;99559.66;;;11.45;100.00
46876;BME280;32866;50.160;14.768;2023-05-24T01:04:41;99559.91;;;11.38;100.00
46876;BME280;32866;50.160;14.768;2023-05-24T01:10:25;99546.50;;;11.27;100.00
46876;BME280;32866;50.160;14.768;2023-05-24T01:15:59;99561.44;;;11.26;100.00
46876;BME280;32866;50.160;14.768;2023-05-24T01:18:28;99562.41;;;11.45;100.00
46876;BME280;32866;50.160;14.768;2023-05-24T01:26:41;99559.00;;;11.28;100.00
46876;BME280;32866;50.160;14.768;2023-05-24T01:29:03;99558.44;;;11.21;100.00
46876;BME280;32866;50.160;14.768;2023-05-24T01:31:29;99559.00;;;11.28;100.00
46876;BME280;32866;50.160;14.768;2023-05-24T01:33:55;99535.09;;;11.03;100.00
46876;BME280;32866;50.160;14.768;2023-05-24T01:36:20;99565.38;;;11.25;100.00
46876;BME280;32866;50.160;14.768;2023-05-24T01:38:47;99572.72;;;11.16;100.00
46876;BME280;32866;50.160;14.768;2023-05-24T01:41:22;99548.56;;;10.98;100.00
46876;BME280;32866;50.160;14.768;2023-05-24T01:43:57;99548.03;;;11.03;100.00
46876;BME280;32866;50.160;14.768;2023-05-24T01:46:34;99557.25;;;11.09;100.00
46876;BME280;32866;50.160;14.768;2023-05-24T01:49:25;99572.59;;;11.19;100.00
46876;BME280;32866;50.160;14.768;2023-05-24T01:52:01;99560.22;;;11.14;100.00
46876;BME280;32866;50.160;14.768;2023-05-24T01:54:32;99573.50;;;11.16;100.00
46876;BME280;32866;50.160;14.768;2023-05-24T01:57:04;99579.41;;;11.14;100.00
46876;BME280;32866;50.160;14.768;2023-05-24T01:59:32;99576.56;;;11.18;100.00
46876;BME280;32866;50.160;14.768;2023-05-24T02:01:57;99541.19;;;10.82;100.00
46876;BME280;32866;50.160;14.768;2023-05-24T02:04:24;99577.44;;;11.15;100.00
46876;BME280;32866;50.160;14.768;2023-05-24T02:06:49;99572.06;;;11.11;100.00
46876;BME280;32866;50.160;14.768;2023-05-24T02:09:15;99542.28;;;10.71;100.00
46876;BME280;32866;50.160;14.768;2023-05-24T02:11:40;99573.91;;;11.02;100.00
46876;BME280;32866;50.160;14.768;2023-05-24T02:14:06;99551.63;;;10.87;100.00
46876;BME280;32866;50.160;14.768;2023-05-24T02:16:31;99562.16;;;10.88;100.00
46876;BME280;32866;50.160;14.768;2023-05-24T02:18:57;99581.13;;;10.95;100.00
46876;BME280;32866;50.160;14.768;2023-05-24T02:21:23;99570.94;;;10.96;100.00
46876;BME280;32866;50.160;14.768;2023-05-24T02:23:49;99568.31;;;11.05;100.00
46876;BME280;32866;50.160;14.768;2023-05-24T02:26:15;99567.66;;;11.01;100.00
46876;BME280;32866;50.160;14.768;2023-05-24T02:28:42;99528.66;;;10.68;100.00
46876;BME280;32866;50.160;14.768;2023-05-24T02:31:08;99569.72;;;10.84;100.00
46876;BME280;32866;50.160;14.768;2023-05-24T02:33:33;99527.22;;;10.63;100.00
46876;BME280;32866;50.160;14.768;2023-05-24T02:35:59;99558.72;;;10.71;100.00
46876;BME280;32866;50.160;14.768;2023-05-24T02:38:25;99537.00;;;10.64;100.00
46876;BME280;32866;50.160;14.768;2023-05-24T02:40:50;99573.66;;;10.83;100.00
46876;BME280;32866;50.160;14.768;2023-05-24T02:43:16;99576.69;;;10.72;100.00
46876;BME280;32866;50.160;14.768;2023-05-24T02:45:41;99575.28;;;10.81;100.00
46876;BME280;32866;50.160;14.768;2023-05-24T02:48:07;99572.78;;;10.86;100.00
46876;BME280;32866;50.160;14.768;2023-05-24T02:50:32;99559.25;;;10.66;100.00
46876;BME280;32866;50.160;14.768;2023-05-24T02:52:57;99573.31;;;10.81;100.00
46876;BME280;32866;50.160;14.768;2023-05-24T02:55:23;99585.69;;;10.86;100.00
46876;BME280;32866;50.160;14.768;2023-05-24T02:57:48;99568.28;;;10.80;100.00
46876;BME280;32866;50.160;14.768;2023-05-24T03:00:14;99536.75;;;10.58;100.00
46876;BME280;32866;50.160;14.768;2023-05-24T03:02:39;99577.91;;;10.71;100.00
46876;BME280;32866;50.160;14.768;2023-05-24T03:05:08;99578.97;;;10.61;100.00
46876;BME280;32866;50.160;14.768;2023-05-24T03:07:33;99570.59;;;10.52;100.00
46876;BME280;32866;50.160;14.768;2023-05-24T03:09:59;99553.00;;;10.36;100.00
46876;BME280;32866;50.160;14.768;2023-05-24T03:12:24;99567.19;;;10.31;100.00
46876;BME280;32866;50.160;14.768;2023-05-24T03:14:49;99579.94;;;10.54;100.00
46876;BME280;32866;50.160;14.768;2023-05-24T03:17:15;99584.63;;;10.54;100.00
46876;BME280;32866;50.160;14.768;2023-05-24T03:19:40;99581.13;;;10.53;100.00
46876;BME280;32866;50.160;14.768;2023-05-24T03:22:06;99592.63;;;10.77;100.00
46876;BME280;32866;50.160;14.768;2023-05-24T03:24:31;99561.19;;;10.53;100.00
46876;BME280;32866;50.160;14.768;2023-05-24T03:26:57;99589.53;;;10.75;100.00
46876;BME280;32866;50.160;14.768;2023-05-24T03:29:23;99602.22;;;10.69;100.00
46876;BME280;32866;50.160;14.768;2023-05-24T03:31:48;99565.63;;;10.47;100.00
46876;BME280;32866;50.160;14.768;2023-05-24T03:34:14;99617.88;;;10.69;100.00
46876;BME280;32866;50.160;14.768;2023-05-24T03:36:39;99589.53;;;10.46;100.00
46876;BME280;32866;50.160;14.768;2023-05-24T03:39:04;99612.72;;;10.58;100.00
46876;BME280;32866;50.160;14.768;2023-05-24T03:41:30;99592.69;;;10.45;100.00
46876;BME280;32866;50.160;14.768;2023-05-24T03:43:55;99593.31;;;10.36;100.00
46876;BME280;32866;50.160;14.768;2023-05-24T03:46:21;99606.34;;;10.32;100.00
46876;BME280;32866;50.160;14.768;2023-05-24T03:48:47;99620.25;;;10.54;100.00
46876;BME280;32866;50.160;14.768;2023-05-24T03:51:13;99595.13;;;10.43;100.00
46876;BME280;32866;50.160;14.768;2023-05-24T03:53:38;99634.53;;;10.62;100.00
46876;BME280;32866;50.160;14.768;2023-05-24T03:56:04;99625.19;;;10.59;100.00
46876;BME280;32866;50.160;14.768;2023-05-24T03:58:29;99593.00;;;10.63;100.00
46876;BME280;32866;50.160;14.768;2023-05-24T04:00:55;99605.28;;;10.42;100.00
46876;BME280;32866;50.160;14.768;2023-05-24T04:03:20;99640.84;;;10.75;100.00
46876;BME280;32866;50.160;14.768;2023-05-24T04:05:46;99632.91;;;10.64;100.00
46876;BME280;32866;50.160;14.768;2023-05-24T04:08:11;99631.69;;;10.65;100.00
46876;BME280;32866;50.160;14.768;2023-05-24T04:10:40;99639.16;;;10.65;100.00
46876;BME280;32866;50.160;14.768;2023-05-24T04:13:06;99603.56;;;10.48;100.00
46876;BME280;32866;50.160;14.768;2023-05-24T04:15:32;99651.41;;;10.60;100.00
46876;BME280;32866;50.160;14.768;2023-05-24T04:17:57;99626.94;;;10.53;100.00
46876;BME280;32866;50.160;14.768;2023-05-24T04:20:22;99655.50;;;10.68;100.00
46876;BME280;32866;50.160;14.768;2023-05-24T04:22:49;99651.91;;;10.71;100.00
46876;BME280;32866;50.160;14.768;2023-05-24T04:25:15;99627.50;;;10.61;100.00
46876;BME280;32866;50.160;14.768;2023-05-24T04:27:40;99657.25;;;10.91;100.00
46876;BME280;32866;50.160;14.768;2023-05-24T04:30:06;99657.47;;;10.97;100.00
46876;BME280;32866;50.160;14.768;2023-05-24T04:32:33;99652.47;;;11.08;100.00
46876;BME280;32866;50.160;14.768;2023-05-24T04:34:59;99652.66;;;11.01;100.00
46876;BME280;32866;50.160;14.768;2023-05-24T04:37:26;99628.16;;;10.94;100.00
46876;BME280;32866;50.160;14.768;2023-05-24T04:39:53;99635.44;;;10.71;100.00
46876;BME280;32866;50.160;14.768;2023-05-24T04:42:19;99642.13;;;10.70;100.00
46876;BME280;32866;50.160;14.768;2023-05-24T04:44:44;99648.81;;;10.69;100.00
46876;BME280;32866;50.160;14.768;2023-05-24T04:47:09;99664.25;;;10.92;100.00
46876;BME280;32866;50.160;14.768;2023-05-24T04:49:36;99664.16;;;10.96;100.00
46876;BME280;32866;50.160;14.768;2023-05-24T04:52:03;99665.41;;;11.08;100.00
46876;BME280;32866;50.160;14.768;2023-05-24T04:54:28;99645.47;;;10.91;100.00
46876;BME280;32866;50.160;14.768;2023-05-24T04:56:53;99670.59;;;11.19;100.00
46876;BME280;32866;50.160;14.768;2023-05-24T04:59:19;99665.09;;;11.19;100.00
46876;BME280;32866;50.160;14.768;2023-05-24T05:01:44;99668.59;;;11.06;100.00
46876;BME280;32866;50.160;14.768;2023-05-24T05:04:10;99636.91;;;11.18;100.00
46876;BME280;32866;50.160;14.768;2023-05-24T05:06:35;99641.41;;;11.25;100.00
46876;BME280;32866;50.160;14.768;2023-05-24T05:09:05;99669.50;;;11.29;100.00
46876;BME280;32866;50.160;14.768;2023-05-24T05:11:33;99643.50;;;11.33;100.00
46876;BME280;32866;50.160;14.768;2023-05-24T05:13:58;99651.41;;;11.44;100.00
46876;BME280;32866;50.160;14.768;2023-05-24T05:16:24;99654.84;;;11.74;100.00
46876;BME280;32866;50.160;14.768;2023-05-24T05:18:49;99669.13;;;11.82;100.00
46876;BME280;32866;50.160;14.768;2023-05-24T05:21:15;99647.59;;;11.80;100.00
46876;BME280;32866;50.160;14.768;2023-05-24T05:23:40;99674.72;;;12.30;100.00
46876;BME280;32866;50.160;14.768;2023-05-24T05:26:06;99651.91;;;12.07;100.00
46876;BME280;32866;50.160;14.768;2023-05-24T05:28:34;99672.19;;;12.22;100.00
46876;BME280;32866;50.160;14.768;2023-05-24T05:30:59;99642.28;;;12.24;100.00
46876;BME280;32866;50.160;14.768;2023-05-24T05:33:25;99686.31;;;12.47;100.00
46876;BME280;32866;50.160;14.768;2023-05-24T05:35:50;99658.91;;;12.08;100.00
46876;BME280;32866;50.160;14.768;2023-05-24T05:38:15;99655.28;;;11.85;100.00
46876;BME280;32866;50.160;14.768;2023-05-24T05:40:41;99655.16;;;11.76;100.00
46876;BME280;32866;50.160;14.768;2023-05-24T05:43:06;99656.94;;;11.57;100.00
46876;BME280;32866;50.160;14.768;2023-05-24T05:45:35;99670.56;;;11.86;100.00
46876;BME280;32866;50.160;14.768;2023-05-24T05:48:00;99691.66;;;12.02;100.00
46876;BME280;32866;50.160;14.768;2023-05-24T05:50:26;99695.91;;;11.91;100.00
46876;BME280;32866;50.160;14.768;2023-05-24T05:52:51;99682.28;;;11.74;100.00
46876;BME280;32866;50.160;14.768;2023-05-24T05:55:17;99672.81;;;11.49;100.00
46876;BME280;32866;50.160;14.768;2023-05-24T05:57:42;99699.44;;;11.65;100.00
46876;BME280;32866;50.160;14.768;2023-05-24T06:00:08;99697.63;;;11.33;100.00
46876;BME280;32866;50.160;14.768;2023-05-24T06:02:33;99699.56;;;11.20;100.00
46876;BME280;32866;50.160;14.768;2023-05-24T06:04:59;99698.31;;;11.08;100.00
46876;BME280;32866;50.160;14.768;2023-05-24T06:07:24;99667.09;;;10.60;100.00
46876;BME280;32866;50.160;14.768;2023-05-24T06:09:50;99710.31;;;11.27;100.00
46876;BME280;32866;50.160;14.768;2023-05-24T06:12:15;99688.09;;;11.08;100.00
46876;BME280;32866;50.160;14.768;2023-05-24T06:14:41;99682.00;;;10.88;100.00
46876;BME280;32866;50.160;14.768;2023-05-24T06:17:06;99719.84;;;11.22;100.00
46876;BME280;32866;50.160;14.768;2023-05-24T06:19:32;99680.03;;;10.88;100.00
46876;BME280;32866;50.160;14.768;2023-05-24T06:21:58;99682.13;;;10.97;100.00
46876;BME280;32866;50.160;14.768;2023-05-24T06:24:23;99715.59;;;11.34;100.00
46876;BME280;32866;50.160;14.768;2023-05-24T06:26:51;99719.69;;;11.42;100.00
46876;BME280;32866;50.160;14.768;2023-05-24T06:29:17;99726.88;;;11.65;100.00
46876;BME280;32866;50.160;14.768;2023-05-24T06:31:46;99734.84;;;12.02;100.00
46876;BME280;32866;50.160;14.768;2023-05-24T06:34:15;99728.91;;;12.16;100.00
46876;BME280;32866;50.160;14.768;2023-05-24T06:36:42;99688.25;;;12.11;97.37
46876;BME280;32866;50.160;14.768;2023-05-24T06:39:08;99728.47;;;12.31;98.27
46876;BME280;32866;50.160;14.768;2023-05-24T06:41:35;99733.25;;;12.52;97.28
46876;BME280;32866;50.160;14.768;2023-05-24T06:44:01;99734.88;;;12.62;99.40
46876;BME280;32866;50.160;14.768;2023-05-24T06:46:26;99709.91;;;12.09;99.12
46876;BME280;32866;50.160;14.768;2023-05-24T06:48:52;99734.94;;;12.11;99.78
46876;BME280;32866;50.160;14.768;2023-05-24T06:51:17;99725.72;;;12.05;100.00
46876;BME280;32866;50.160;14.768;2023-05-24T06:53:42;99699.59;;;12.00;99.60
46876;BME280;32866;50.160;14.768;2023-05-24T06:56:08;99734.50;;;12.13;100.00
46876;BME280;32866;50.160;14.768;2023-05-24T06:58:34;99735.25;;;12.13;100.00
46876;BME280;32866;50.160;14.768;2023-05-24T07:01:00;99711.75;;;11.86;100.00
46876;BME280;32866;50.160;14.768;2023-05-24T07:03:26;99707.94;;;11.97;100.00
46876;BME280;32866;50.160;14.768;2023-05-24T07:05:52;99751.53;;;12.20;100.00
46876;BME280;32866;50.160;14.768;2023-05-24T07:08:17;99734.59;;;12.35;98.91
46876;BME280;32866;50.160;14.768;2023-05-24T07:10:42;99748.63;;;12.62;99.41
46876;BME280;32866;50.160;14.768;2023-05-24T07:13:09;99749.28;;;12.67;98.64
46876;BME280;32866;50.160;14.768;2023-05-24T07:15:42;99750.50;;;12.66;99.47
46876;BME280;32866;50.160;14.768;2023-05-24T07:18:07;99753.59;;;12.55;98.55
46876;BME280;32866;50.160;14.768;2023-05-24T07:20:33;99752.75;;;12.32;99.68
46876;BME280;32866;50.160;14.768;2023-05-24T07:22:59;99749.34;;;12.15;97.73
46876;BME280;32866;50.160;14.768;2023-05-24T07:25:25;99738.25;;;12.19;100.00
46876;BME280;32866;50.160;14.768;2023-05-24T07:27:51;99753.63;;;12.16;99.42
46876;BME280;32866;50.160;14.768;2023-05-24T07:30:16;99731.22;;;12.05;97.76
46876;BME280;32866;50.160;14.768;2023-05-24T07:32:41;99751.22;;;12.05;98.46
46876;BME280;32866;50.160;14.768;2023-05-24T07:35:07;99761.22;;;12.12;99.51
46876;BME280;32866;50.160;14.768;2023-05-24T07:37:33;99737.13;;;12.29;98.57
46876;BME280;32866;50.160;14.768;2023-05-24T07:39:58;99747.50;;;12.73;94.45
46876;BME280;32866;50.160;14.768;2023-05-24T07:42:24;99761.59;;;13.10;94.67
46876;BME280;32866;50.160;14.768;2023-05-24T07:44:50;99762.78;;;13.44;94.21
46876;BME280;32866;50.160;14.768;2023-05-24T07:47:15;99727.56;;;13.39;90.40
46876;BME280;32866;50.160;14.768;2023-05-24T07:49:40;99744.84;;;13.61;93.22
46876;BME280;32866;50.160;14.768;2023-05-24T07:52:06;99760.25;;;13.81;89.02
46876;BME280;32866;50.160;14.768;2023-05-24T07:54:31;99725.91;;;13.63;89.28
46876;BME280;32866;50.160;14.768;2023-05-24T07:56:56;99766.56;;;14.22;88.45
46876;BME280;32866;50.160;14.768;2023-05-24T07:59:22;99759.09;;;13.91;82.93
46876;BME280;32866;50.160;14.768;2023-05-24T08:01:48;99722.88;;;13.26;86.68
46876;BME280;32866;50.160;14.768;2023-05-24T08:04:13;99760.59;;;13.61;83.85
46876;BME280;32866;50.160;14.768;2023-05-24T08:06:39;99724.31;;;13.31;87.52
46876;BME280;32866;50.160;14.768;2023-05-24T08:09:04;99734.66;;;13.27;88.98
46876;BME280;32866;50.160;14.768;2023-05-24T08:11:30;99758.97;;;13.06;93.89
46876;BME280;32866;50.160;14.768;2023-05-24T08:13:55;99743.44;;;13.12;89.83
46876;BME280;32866;50.160;14.768;2023-05-24T08:16:21;99768.47;;;13.27;86.46
46876;BME280;32866;50.160;14.768;2023-05-24T08:18:46;99758.88;;;13.54;86.06
46876;BME280;32866;50.160;14.768;2023-05-24T08:21:12;99734.50;;;13.43;84.80
46876;BME280;32866;50.160;14.768;2023-05-24T08:23:37;99763.22;;;13.64;85.68
46876;BME280;32866;50.160;14.768;2023-05-24T08:26:02;99733.97;;;13.58;85.40
46876;BME280;32866;50.160;14.768;2023-05-24T08:28:28;99768.66;;;14.08;83.83
46876;BME280;32866;50.160;14.768;2023-05-24T08:30:53;99775.19;;;14.42;80.56
46876;BME280;32866;50.160;14.768;2023-05-24T08:33:19;99734.69;;;14.71;75.90
46876;BME280;32866;50.160;14.768;2023-05-24T08:35:46;99754.31;;;15.10;77.84
46876;BME280;32866;50.160;14.768;2023-05-24T08:38:12;99757.25;;;15.15;75.72
46876;BME280;32866;50.160;14.768;2023-05-24T08:40:38;99731.19;;;15.16;74.74
46876;BME280;32866;50.160;14.768;2023-05-24T08:43:03;99768.59;;;14.99;75.72
46876;BME280;32866;50.160;14.768;2023-05-24T08:45:36;99735.59;;;15.42;74.30
46876;BME280;32866;50.160;14.768;2023-05-24T08:48:02;99770.69;;;15.78;75.08
46876;BME280;32866;50.160;14.768;2023-05-24T08:50:30;99739.97;;;16.52;71.77
46876;BME280;32866;50.160;14.768;2023-05-24T08:52:57;99761.22;;;17.33;69.21
46876;BME280;32866;50.160;14.768;2023-05-24T08:55:23;99766.75;;;16.46;67.51
46876;BME280;32866;50.160;14.768;2023-05-24T08:57:49;99765.47;;;16.56;67.71
46876;BME280;32866;50.160;14.768;2023-05-24T09:00:14;99739.34;;;17.35;66.41
46876;BME280;32866;50.160;14.768;2023-05-24T09:02:41;99765.66;;;17.70;63.47
46876;BME280;32866;50.160;14.768;2023-05-24T09:05:09;99769.84;;;17.65;63.07
46876;BME280;32866;50.160;14.768;2023-05-24T09:07:35;99759.31;;;17.69;64.71
46876;BME280;32866;50.160;14.768;2023-05-24T09:10:04;99760.47;;;18.07;63.97
46876;BME280;32866;50.160;14.768;2023-05-24T09:12:30;99751.44;;;18.27;61.23
46876;BME280;32866;50.160;14.768;2023-05-24T09:15:01;99762.72;;;19.47;60.21
46876;BME280;32866;50.160;14.768;2023-05-24T09:17:27;99763.28;;;19.51;56.72
46876;BME280;32866;50.160;14.768;2023-05-24T09:19:53;99767.75;;;20.33;52.53
46876;BME280;32866;50.160;14.768;2023-05-24T09:22:18;99759.88;;;21.57;51.99
46876;BME280;32866;50.160;14.768;2023-05-24T09:24:49;99755.56;;;20.73;51.68
46876;BME280;32866;50.160;14.768;2023-05-24T09:27:16;99763.50;;;20.43;54.82
46876;BME280;32866;50.160;14.768;2023-05-24T09:29:42;99742.47;;;20.42;50.88
46876;BME280;32866;50.160;14.768;2023-05-24T09:32:10;99761.78;;;20.51;52.45
46876;BME280;32866;50.160;14.768;2023-05-24T09:34:39;99732.38;;;20.01;51.73
46876;BME280;32866;50.160;14.768;2023-05-24T09:37:08;99760.81;;;19.59;55.22
46876;BME280;32866;50.160;14.768;2023-05-24T09:39:33;99755.00;;;19.83;54.93
46876;BME280;32866;50.160;14.768;2023-05-24T09:41:59;99763.25;;;19.77;53.18
46876;BME280;32866;50.160;14.768;2023-05-24T09:44:25;99751.03;;;19.37;55.57
46876;BME280;32866;50.160;14.768;2023-05-24T09:47:00;99750.41;;;20.17;49.73
46876;BME280;32866;50.160;14.768;2023-05-24T09:49:27;99737.88;;;20.88;52.57
46876;BME280;32866;50.160;14.768;2023-05-24T09:51:52;99763.66;;;21.71;46.54
46876;BME280;32866;50.160;14.768;2023-05-24T09:54:19;99757.88;;;20.86;46.83
46876;BME280;32866;50.160;14.768;2023-05-24T09:56:45;99752.25;;;21.92;47.38
46876;BME280;32866;50.160;14.768;2023-05-24T09:59:10;99735.81;;;20.71;49.28
46876;BME280;32866;50.160;14.768;2023-05-24T10:01:36;99759.63;;;21.55;51.13
46876;BME280;32866;50.160;14.768;2023-05-24T10:04:02;99740.41;;;20.80;46.61
46876;BME280;32866;50.160;14.768;2023-05-24T10:06:34;99735.84;;;20.34;48.45
46876;BME280;32866;50.160;14.768;2023-05-24T10:09:02;99753.47;;;21.40;47.48
46876;BME280;32866;50.160;14.768;2023-05-24T10:11:31;99751.00;;;22.04;45.26
46876;BME280;32866;50.160;14.768;2023-05-24T10:13:57;99740.53;;;22.27;44.68
46876;BME280;32866;50.160;14.768;2023-05-24T10:16:24;99763.06;;;22.63;44.24
46876;BME280;32866;50.160;14.768;2023-05-24T10:18:49;99753.25;;;23.09;45.42
46876;BME280;32866;50.160;14.768;2023-05-24T10:21:16;99762.75;;;22.78;41.01
46876;BME280;32866;50.160;14.768;2023-05-24T10:23:44;99758.94;;;20.46;46.18
46876;BME280;32866;50.160;14.768;2023-05-24T10:26:15;99715.16;;;20.95;44.95
46876;BME280;32866;50.160;14.768;2023-05-24T10:28:44;99757.34;;;21.54;45.45
46876;BME280;32866;50.160;14.768;2023-05-24T10:31:14;99747.97;;;21.74;45.22
46876;BME280;32866;50.160;14.768;2023-05-24T10:33:42;99754.03;;;22.00;43.98
46876;BME280;32866;50.160;14.768;2023-05-24T10:36:09;99749.81;;;20.94;42.87
46876;BME280;32866;50.160;14.768;2023-05-24T10:38:39;99748.53;;;20.35;46.09
46876;BME280;32866;50.160;14.768;2023-05-24T10:41:05;99739.94;;;20.44;45.55
46876;BME280;32866;50.160;14.768;2023-05-24T10:43:35;99737.22;;;20.50;48.06
46876;BME280;32866;50.160;14.768;2023-05-24T10:46:02;99749.41;;;19.04;49.34
46876;BME280;32866;50.160;14.768;2023-05-24T10:50:53;99748.78;;;18.95;51.62
46876;BME280;32866;50.160;14.768;2023-05-24T10:53:21;99750.09;;;19.46;53.63
46876;BME280;32866;50.160;14.768;2023-05-24T10:55:57;99748.38;;;20.55;46.77
46876;BME280;32866;50.160;14.768;2023-05-24T10:58:27;99750.13;;;19.25;47.87
46876;BME280;32866;50.160;14.768;2023-05-24T11:01:34;99757.22;;;19.79;51.69
46876;BME280;32866;50.160;14.768;2023-05-24T11:04:18;99761.75;;;21.11;46.73
46876;BME280;32866;50.160;14.768;2023-05-24T11:06:46;99758.84;;;19.91;45.93
46876;BME280;32866;50.160;14.768;2023-05-24T11:09:16;99751.84;;;19.17;46.85
46876;BME280;32866;50.160;14.768;2023-05-24T11:11:45;99739.19;;;19.42;47.71
46876;BME280;32866;50.160;14.768;2023-05-24T11:14:12;99730.66;;;19.46;46.23
46876;BME280;32866;50.160;14.768;2023-05-24T11:16:38;99756.63;;;19.69;45.52
46876;BME280;32866;50.160;14.768;2023-05-24T11:19:23;99759.38;;;19.95;47.22
46876;BME280;32866;50.160;14.768;2023-05-24T11:21:50;99749.00;;;19.38;50.18
46876;BME280;32866;50.160;14.768;2023-05-24T11:24:17;99776.44;;;19.04;50.25
46876;BME280;32866;50.160;14.768;2023-05-24T11:26:43;99763.75;;;18.62;48.98
46876;BME280;32866;50.160;14.768;2023-05-24T11:29:09;99762.81;;;19.06;48.96
46876;BME280;32866;50.160;14.768;2023-05-24T11:31:34;99735.72;;;19.48;48.83
46876;BME280;32866;50.160;14.768;2023-05-24T11:34:09;99751.94;;;19.28;49.00
46876;BME280;32866;50.160;14.768;2023-05-24T11:36:34;99761.25;;;20.10;48.82
46876;BME280;32866;50.160;14.768;2023-05-24T11:39:00;99753.19;;;20.12;50.13
46876;BME280;32866;50.160;14.768;2023-05-24T11:41:25;99725.50;;;19.65;47.78
46876;BME280;32866;50.160;14.768;2023-05-24T11:43:52;99763.03;;;19.28;48.12
46876;BME280;32866;50.160;14.768;2023-05-24T11:46:18;99765.03;;;20.07;50.84
46876;BME280;32866;50.160;14.768;2023-05-24T11:48:55;99737.94;;;19.43;47.32
46876;BME280;32866;50.160;14.768;2023-05-24T11:51:31;99759.84;;;19.36;48.83
46876;BME280;32866;50.160;14.768;2023-05-24T11:53:57;99763.91;;;18.73;50.80
46876;BME280;32866;50.160;14.768;2023-05-24T11:56:23;99771.88;;;18.65;49.33
46876;BME280;32866;50.160;14.768;2023-05-24T11:58:49;99768.63;;;19.08;51.76
46876;BME280;32866;50.160;14.768;2023-05-24T12:01:26;99766.03;;;19.77;49.71
46876;BME280;32866;50.160;14.768;2023-05-24T12:03:53;99745.50;;;19.43;52.65
46876;BME280;32866;50.160;14.768;2023-05-24T12:06:18;99774.81;;;19.96;50.81
46876;BME280;32866;50.160;14.768;2023-05-24T12:08:44;99785.94;;;19.96;50.01
46876;BME280;32866;50.160;14.768;2023-05-24T12:11:10;99742.16;;;19.91;50.85
46876;BME280;32866;50.160;14.768;2023-05-24T12:13:35;99764.28;;;20.12;47.62
46876;BME280;32866;50.160;14.768;2023-05-24T12:16:02;99756.97;;;19.51;50.17
46876;BME280;32866;50.160;14.768;2023-05-24T12:18:27;99772.91;;;19.82;50.11
46876;BME280;32866;50.160;14.768;2023-05-24T12:20:53;99756.31;;;20.74;50.07
46876;BME280;32866;50.160;14.768;2023-05-24T12:23:19;99762.63;;;21.52;45.43
46876;BME280;32866;50.160;14.768;2023-05-24T12:25:45;99763.06;;;22.63;42.74
46876;BME280;32866;50.160;14.768;2023-05-24T12:28:11;99745.41;;;21.93;43.72
46876;BME280;32866;50.160;14.768;2023-05-24T12:30:37;99756.19;;;22.70;39.81
46876;BME280;32866;50.160;14.768;2023-05-24T12:33:08;99761.53;;;24.23;39.02
46876;BME280;32866;50.160;14.768;2023-05-24T12:35:34;99762.72;;;23.73;38.28
46876;BME280;32866;50.160;14.768;2023-05-24T12:37:59;99761.66;;;23.45;38.71
46876;BME280;32866;50.160;14.768;2023-05-24T12:40:25;99740.00;;;22.51;39.50
46876;BME280;32866;50.160;14.768;2023-05-24T12:42:54;99756.97;;;23.59;40.26
46876;BME280;32866;50.160;14.768;2023-05-24T12:45:24;99759.91;;;24.08;37.90
46876;BME280;32866;50.160;14.768;2023-05-24T12:47:51;99739.78;;;23.02;39.52
46876;BME280;32866;50.160;14.768;2023-05-24T12:50:21;99737.97;;;23.10;40.33
46876;BME280;32866;50.160;14.768;2023-05-24T12:52:48;99745.91;;;24.33;40.47
46876;BME280;32866;50.160;14.768;2023-05-24T12:55:24;99740.34;;;24.03;36.67
46876;BME280;32866;50.160;14.768;2023-05-24T12:57:53;99739.22;;;23.57;38.10